createdAt,value
2018-04-12T00:01:44.328Z,70.70
2018-04-12T00:04:12.203Z,70.70
2018-04-12T00:06:40.096Z,70.70
2018-04-12T00:09:07.570Z,70.70
2018-04-12T00:11:35.092Z,70.80
2018-04-12T00:14:02.666Z,70.70
2018-04-12T00:16:30.638Z,70.80
2018-04-12T00:18:58.519Z,70.90
2018-04-12T00:21:26.386Z,70.90
2018-04-12T00:23:54.263Z,70.90
2018-04-12T00:26:22.240Z,70.90
2018-04-12T00:28:50.115Z,70.70
2018-04-12T00:31:17.624Z,70.80
2018-04-12T00:33:45.106Z,70.90
2018-04-12T00:36:12.572Z,71.00
2018-04-12T00:38:40.065Z,70.90
2018-04-12T00:41:08.077Z,70.90
2018-04-12T00:43:35.571Z,70.80
2018-04-12T00:46:03.135Z,70.90
2018-04-12T00:48:30.601Z,70.90
2018-04-12T00:50:58.070Z,71.00
2018-04-12T00:53:37.866Z,71.10
2018-04-12T00:56:05.328Z,71.10
2018-04-12T00:58:32.807Z,71.10
2018-04-12T01:01:00.282Z,71.30
2018-04-12T01:03:27.749Z,71.30
2018-04-12T01:05:55.291Z,71.60
2018-04-12T01:08:22.874Z,71.60
2018-04-12T01:10:50.341Z,71.80
2018-04-12T01:13:17.808Z,71.90
2018-04-12T01:15:45.280Z,72.00
2018-04-12T01:18:12.813Z,72.10
2018-04-12T01:20:40.292Z,71.90
2018-04-12T01:23:07.778Z,71.60
2018-04-12T01:25:35.709Z,71.90
2018-04-12T01:28:03.182Z,71.90
2018-04-12T01:30:30.690Z,72.00
2018-04-12T01:33:10.116Z,71.90
2018-04-12T01:35:37.573Z,72.00
2018-04-12T01:38:05.500Z,72.30
2018-04-12T01:40:32.981Z,72.30
2018-04-12T01:43:00.539Z,72.30
2018-04-12T01:45:28.004Z,72.40
2018-04-12T01:47:55.465Z,72.50
2018-04-12T01:50:22.923Z,72.70
2018-04-12T01:52:50.420Z,72.70
2018-04-12T01:55:18.269Z,72.90
2018-04-12T01:57:45.733Z,72.80
2018-04-12T02:00:13.215Z,73.10
2018-04-12T02:02:41.106Z,73.30
2018-04-12T02:05:08.616Z,73.30
2018-04-12T02:07:36.087Z,73.50
2018-04-12T02:10:03.561Z,73.70
2018-04-12T02:12:31.442Z,73.80
2018-04-12T02:14:59.301Z,74.00
2018-04-12T02:17:26.812Z,74.00
2018-04-12T02:19:54.321Z,74.10
2018-04-12T02:22:21.825Z,74.20
2018-04-12T02:24:58.915Z,74.20
2018-04-12T02:27:26.432Z,74.10
2018-04-12T02:29:53.964Z,74.10
2018-04-12T02:32:21.606Z,74.10
2018-04-12T02:34:49.075Z,74.20
2018-04-12T02:37:16.543Z,73.90
2018-04-12T02:39:44.046Z,73.90
2018-04-12T02:42:11.533Z,74.00
2018-04-12T02:44:39.061Z,73.90
2018-04-12T02:47:06.624Z,73.80
2018-04-12T02:49:34.080Z,73.90
2018-04-12T02:52:01.649Z,73.90
2018-04-12T02:54:29.208Z,73.80
2018-04-12T02:56:56.732Z,73.70
2018-04-12T02:59:24.196Z,73.40
2018-04-12T03:01:51.657Z,73.10
2018-04-12T03:04:19.181Z,73.10
2018-04-12T03:06:46.812Z,73.20
2018-04-12T03:09:14.278Z,73.30
2018-04-12T03:11:41.745Z,73.30
2018-04-12T03:14:09.317Z,73.30
2018-04-12T03:16:36.784Z,73.60
2018-04-12T03:19:04.567Z,73.60
2018-04-12T03:21:32.024Z,73.70
2018-04-12T03:23:59.574Z,73.80
2018-04-12T03:26:27.047Z,73.90
2018-04-12T03:28:54.610Z,74.00
2018-04-12T03:31:22.090Z,74.20
2018-04-12T03:33:49.959Z,74.30
2018-04-12T03:36:17.818Z,74.40
2018-04-12T03:38:45.280Z,74.40
2018-04-12T03:41:12.744Z,74.40
2018-04-12T03:43:40.263Z,74.20
2018-04-12T03:46:07.766Z,74.20
2018-04-12T03:48:35.296Z,74.10
2018-04-12T03:51:02.703Z,74.10
2018-04-12T03:53:30.548Z,74.00
2018-04-12T03:55:58.093Z,74.00
2018-04-12T03:58:25.580Z,74.00
2018-04-12T04:00:53.040Z,73.90
2018-04-12T04:03:20.508Z,73.80
2018-04-12T04:08:22.696Z,73.60
2018-04-12T04:10:50.353Z,73.60
2018-04-12T04:13:18.119Z,73.40
2018-04-12T04:15:57.652Z,73.40
2018-04-12T04:18:37.030Z,73.60
2018-04-12T04:21:09.825Z,73.60
2018-04-12T04:23:37.813Z,73.70
2018-04-12T04:26:05.321Z,73.70
2018-04-12T04:28:32.892Z,73.90
2018-04-12T04:31:00.446Z,73.80
2018-04-12T04:33:28.001Z,73.70
2018-04-12T04:35:55.567Z,73.80
2018-04-12T04:38:23.054Z,73.70
2018-04-12T04:40:50.598Z,73.80
2018-04-12T04:43:18.114Z,73.30
2018-04-12T04:45:45.594Z,73.10
2018-04-12T04:48:13.127Z,72.50
2018-04-12T04:50:40.984Z,72.40
2018-04-12T04:53:08.949Z,71.90
2018-04-12T04:55:37.529Z,71.90
2018-04-12T04:58:05.978Z,71.60
2018-04-12T05:00:33.480Z,71.60
2018-04-12T05:03:00.944Z,71.70
2018-04-12T05:05:28.403Z,71.70
2018-04-12T05:07:55.923Z,71.50
2018-04-12T05:10:23.395Z,71.20
2018-04-12T05:12:50.884Z,70.80
2018-04-12T05:15:18.346Z,70.80
2018-04-12T05:17:45.820Z,70.80
2018-04-12T05:20:13.343Z,70.80
2018-04-12T05:22:40.825Z,70.80
2018-04-12T05:25:08.284Z,70.80
2018-04-12T05:27:35.740Z,70.60
2018-04-12T05:30:03.202Z,70.50
2018-04-12T05:32:30.808Z,70.50
2018-04-12T05:34:58.363Z,70.10
2018-04-12T05:37:25.813Z,70.00
2018-04-12T05:39:53.369Z,69.70
2018-04-12T05:42:20.892Z,69.70
2018-04-12T05:44:48.422Z,69.50
2018-04-12T05:47:16.284Z,69.60
2018-04-12T05:49:43.845Z,69.60
2018-04-12T05:52:11.313Z,69.60
2018-04-12T05:54:38.770Z,69.70
2018-04-12T05:57:06.249Z,70.20
2018-04-12T05:59:34.208Z,69.50
2018-04-12T06:02:01.776Z,69.50
2018-04-12T06:04:29.243Z,68.80
2018-04-12T06:06:56.780Z,68.90
2018-04-12T06:09:24.289Z,68.70
2018-04-12T06:11:51.760Z,68.70
2018-04-12T06:14:19.228Z,68.30
2018-04-12T06:16:47.682Z,68.40
2018-04-12T06:19:15.621Z,68.60
2018-04-12T06:21:43.186Z,68.60
2018-04-12T06:24:10.662Z,68.60
2018-04-12T06:26:38.138Z,67.80
2018-04-12T06:29:05.600Z,67.70
2018-04-12T06:31:33.055Z,67.70
2018-04-12T06:34:00.643Z,67.60
2018-04-12T06:36:28.088Z,67.10
2018-04-12T06:38:55.634Z,67.20
2018-04-12T06:41:23.221Z,66.70
2018-04-12T06:43:51.078Z,67.00
2018-04-12T06:46:18.729Z,66.90
2018-04-12T06:48:46.315Z,66.90
2018-04-12T06:51:13.772Z,66.90
2018-04-12T06:53:41.243Z,67.20
2018-04-12T06:56:08.693Z,67.30
2018-04-12T06:58:36.217Z,66.50
2018-04-12T07:01:03.682Z,65.60
2018-04-12T07:03:31.380Z,65.60
2018-04-12T07:05:59.247Z,65.60
2018-04-12T07:08:27.014Z,65.90
2018-04-12T07:10:54.549Z,66.30
2018-04-12T07:13:22.221Z,66.80
2018-04-12T07:15:49.742Z,65.60
2018-04-12T07:18:17.696Z,65.10
2018-04-12T07:20:45.380Z,65.10
2018-04-12T07:23:13.295Z,66.20
2018-04-12T07:25:40.881Z,66.20
2018-04-12T07:28:09.067Z,65.70
2018-04-12T07:30:36.539Z,65.70
2018-04-12T07:33:04.016Z,65.50
2018-04-12T07:35:31.984Z,64.30
2018-04-12T07:37:59.615Z,64.30
2018-04-12T07:40:27.168Z,64.10
2018-04-12T07:42:54.820Z,63.70
2018-04-12T07:45:22.301Z,63.60
2018-04-12T07:47:49.837Z,63.30
2018-04-12T07:50:17.305Z,62.60
2018-04-12T07:52:46.443Z,62.90
2018-04-12T07:55:13.909Z,61.90
2018-04-12T07:57:41.578Z,61.90
2018-04-12T08:00:09.463Z,61.70
2018-04-12T08:02:36.940Z,61.70
2018-04-12T08:05:04.808Z,61.40
2018-04-12T08:07:32.373Z,61.30
2018-04-12T08:10:00.901Z,60.40
2018-04-12T08:12:29.180Z,59.90
2018-04-12T08:14:57.102Z,60.20
2018-04-12T08:17:24.549Z,60.20
2018-04-12T08:19:52.041Z,59.80
2018-04-12T08:22:20.049Z,59.80
2018-04-12T08:24:47.536Z,59.80
2018-04-12T08:27:14.993Z,60.30
2018-04-12T08:29:42.468Z,59.80
2018-04-12T08:32:10.000Z,60.60
2018-04-12T08:34:37.507Z,60.40
2018-04-12T08:37:05.040Z,60.20
2018-04-12T08:39:32.497Z,59.20
2018-04-12T08:42:00.301Z,59.20
2018-04-12T08:44:28.076Z,60.00
2018-04-12T08:46:55.561Z,60.20
2018-04-12T08:49:23.463Z,58.60
2018-04-12T08:51:51.209Z,58.60
2018-04-12T08:54:19.264Z,58.10
2018-04-12T08:56:46.829Z,58.10
2018-04-12T08:59:14.392Z,57.60
2018-04-12T09:01:41.923Z,57.40
2018-04-12T09:04:09.405Z,57.00
2018-04-12T09:06:36.887Z,57.40
2018-04-12T09:09:04.744Z,56.60
2018-04-12T09:11:32.304Z,56.60
2018-04-12T09:13:59.976Z,56.50
2018-04-12T09:16:27.421Z,55.90
2018-04-12T09:18:54.995Z,55.60
2018-04-12T09:21:22.459Z,55.80
2018-04-12T09:23:50.921Z,54.40
2018-04-12T09:26:18.458Z,54.10
2018-04-12T09:28:45.916Z,53.20
2018-04-12T09:31:13.388Z,52.10
2018-04-12T09:33:41.150Z,51.60
2018-04-12T09:36:08.660Z,51.00
2018-04-12T09:38:36.194Z,50.70
2018-04-12T09:41:03.697Z,50.00
2018-04-12T09:43:31.371Z,49.90
2018-04-12T09:45:58.836Z,50.30
2018-04-12T09:48:26.379Z,50.80
2018-04-12T09:50:53.901Z,50.40
2018-04-12T09:53:21.398Z,50.30
2018-04-12T09:55:48.971Z,50.10
2018-04-12T09:58:16.641Z,49.90
2018-04-12T10:00:59.040Z,49.00
2018-04-12T10:03:26.638Z,49.10
2018-04-12T10:06:00.506Z,48.70
2018-04-12T10:08:28.160Z,48.70
2018-04-12T10:10:56.329Z,49.10
2018-04-12T10:13:23.868Z,48.40
2018-04-12T10:15:51.372Z,48.80
2018-04-12T10:18:19.168Z,48.50
2018-04-12T10:20:46.682Z,49.00
2018-04-12T10:23:14.173Z,49.30
2018-04-12T10:25:41.650Z,49.60
2018-04-12T10:28:09.471Z,49.40
2018-04-12T10:30:36.999Z,49.20
2018-04-12T10:33:04.893Z,49.10
2018-04-12T10:35:32.849Z,49.10
2018-04-12T10:38:00.806Z,49.30
2018-04-12T10:40:28.329Z,49.30
2018-04-12T10:42:56.154Z,49.50
2018-04-12T10:45:24.450Z,49.80
2018-04-12T10:47:52.371Z,49.90
2018-04-12T10:50:20.176Z,49.90
2018-04-12T10:52:47.874Z,49.70
2018-04-12T10:55:15.391Z,49.40
2018-04-12T10:57:42.972Z,49.70
2018-04-12T11:00:10.436Z,50.30
2018-04-12T11:02:38.840Z,50.30
2018-04-12T11:05:06.461Z,50.30
2018-04-12T11:07:34.047Z,50.20
2018-04-12T11:10:01.943Z,49.90
2018-04-12T11:12:29.555Z,49.90
2018-04-12T11:14:57.214Z,50.40
2018-04-12T11:17:24.752Z,49.00
2018-04-12T11:19:52.285Z,48.60
2018-04-12T11:22:20.348Z,49.20
2018-04-12T11:24:48.787Z,49.20
2018-04-12T11:27:16.815Z,49.00
2018-04-12T11:29:44.859Z,48.60
2018-04-12T11:32:12.426Z,48.60
2018-04-12T11:34:39.945Z,48.30
2018-04-12T11:37:08.028Z,48.80
2018-04-12T11:39:35.711Z,48.80
2018-04-12T11:42:03.611Z,49.20
2018-04-12T11:44:31.086Z,48.90
2018-04-12T11:46:58.637Z,49.40
2018-04-12T11:49:26.352Z,49.50
2018-04-12T11:51:53.879Z,49.60
2018-04-12T11:54:21.367Z,49.80
2018-04-12T11:56:48.924Z,49.00
2018-04-12T11:59:16.805Z,49.70
2018-04-12T12:01:44.724Z,48.90
2018-04-12T12:04:12.221Z,48.90
2018-04-12T12:06:39.710Z,49.40
2018-04-12T12:09:07.310Z,49.40
2018-04-12T12:11:34.904Z,49.90
2018-04-12T12:14:02.736Z,49.90
2018-04-12T12:16:30.451Z,49.90
2018-04-12T12:18:58.421Z,50.10
2018-04-12T12:21:25.888Z,50.10
2018-04-12T12:23:53.809Z,49.70
2018-04-12T12:26:21.663Z,49.70
2018-04-12T12:28:49.149Z,49.70
2018-04-12T12:31:16.637Z,49.10
2018-04-12T12:33:44.148Z,48.60
2018-04-12T12:36:11.705Z,49.00
2018-04-12T12:38:39.212Z,48.70
2018-04-12T12:41:06.821Z,48.50
2018-04-12T12:43:34.703Z,50.00
2018-04-12T12:46:02.187Z,50.00
2018-04-12T12:48:29.701Z,49.50
2018-04-12T12:50:57.185Z,49.60
2018-04-12T12:53:24.705Z,50.10
2018-04-12T12:55:52.306Z,50.10
2018-04-12T12:58:20.173Z,50.30
2018-04-12T13:00:48.083Z,50.70
2018-04-12T13:03:15.590Z,50.70
2018-04-12T13:05:43.110Z,50.50
2018-04-12T13:08:10.589Z,49.70
2018-04-12T13:10:38.092Z,50.30
2018-04-12T13:13:05.556Z,50.80
2018-04-12T13:15:33.127Z,50.50
2018-04-12T13:18:01.078Z,49.50
2018-04-12T13:20:28.550Z,49.50
2018-04-12T13:22:56.090Z,49.50
2018-04-12T13:25:24.177Z,49.70
2018-04-12T13:27:52.208Z,49.60
2018-04-12T13:30:19.886Z,49.20
2018-04-12T13:32:47.371Z,48.60
2018-04-12T13:35:14.980Z,49.10
2018-04-12T13:37:43.695Z,48.70
2018-04-12T13:40:11.208Z,48.70
2018-04-12T13:42:38.739Z,48.70
2018-04-12T13:45:06.397Z,49.00
2018-04-12T13:47:33.878Z,49.60
2018-04-12T13:50:01.373Z,50.00
2018-04-12T13:52:28.834Z,48.80
2018-04-12T13:54:56.414Z,49.40
2018-04-12T13:57:24.368Z,49.50
2018-04-12T13:59:51.847Z,49.50
2018-04-12T14:02:19.727Z,49.20
2018-04-12T14:04:47.661Z,49.40
2018-04-12T14:07:15.141Z,49.40
2018-04-12T14:09:42.629Z,49.90
2018-04-12T14:12:11.353Z,49.50
2018-04-12T14:14:38.848Z,49.70
2018-04-12T14:17:07.185Z,49.40
2018-04-12T14:19:34.949Z,49.20
2018-04-12T14:22:02.487Z,49.60
2018-04-12T14:24:30.340Z,49.90
2018-04-12T14:26:57.831Z,49.90
2018-04-12T14:29:25.785Z,50.40
2018-04-12T14:31:53.704Z,50.50
2018-04-12T14:34:21.181Z,50.50
2018-04-12T14:36:48.662Z,50.70
2018-04-12T14:39:16.433Z,50.30
2018-04-12T14:41:43.914Z,49.80
2018-04-12T14:44:11.879Z,50.00
2018-04-12T14:46:39.351Z,50.00
2018-04-12T14:49:07.218Z,49.70
2018-04-12T14:51:35.084Z,49.90
2018-04-12T14:54:02.637Z,49.90
2018-04-12T14:56:30.154Z,50.30
2018-04-12T14:58:57.692Z,49.90
2018-04-12T15:01:25.558Z,49.00
2018-04-12T15:03:53.412Z,49.00
2018-04-12T15:06:20.959Z,49.00
2018-04-12T15:08:48.446Z,49.10
2018-04-12T15:11:15.916Z,49.20
2018-04-12T15:13:43.870Z,50.00
2018-04-12T15:16:11.326Z,50.00
2018-04-12T15:18:38.797Z,50.10
2018-04-12T15:21:06.499Z,50.30
2018-04-12T15:23:34.220Z,50.10
2018-04-12T15:26:01.954Z,50.20
2018-04-12T15:28:29.512Z,50.50
2018-04-12T15:30:57.256Z,51.00
2018-04-12T15:33:25.121Z,50.70
2018-04-12T15:35:53.063Z,51.10
2018-04-12T15:38:20.550Z,51.10
2018-04-12T15:40:48.083Z,50.70
2018-04-12T15:43:15.539Z,50.50
2018-04-12T15:45:43.241Z,50.30
2018-04-12T15:48:10.705Z,51.30
2018-04-12T15:50:38.231Z,51.80
2018-04-12T15:53:06.121Z,50.60
2018-04-12T15:55:33.580Z,50.60
2018-04-12T15:58:01.065Z,51.20
2018-04-12T16:00:28.524Z,50.70
2018-04-12T16:02:56.090Z,50.70
2018-04-12T16:05:23.645Z,51.10
2018-04-12T16:07:51.209Z,50.70
2018-04-12T16:10:18.779Z,50.70
2018-04-12T16:12:46.249Z,52.70
2018-04-12T16:15:13.794Z,51.90
2018-04-12T16:17:41.247Z,50.40
2018-04-12T16:20:08.712Z,50.30
2018-04-12T16:22:36.295Z,50.30
2018-04-12T16:25:03.756Z,50.10
2018-04-12T16:27:31.284Z,49.80
2018-04-12T16:29:58.780Z,49.90
2018-04-12T16:32:26.229Z,49.90
2018-04-12T16:34:53.772Z,50.00
2018-04-12T16:37:21.241Z,50.10
2018-04-12T16:39:48.709Z,50.30
2018-04-12T16:42:16.176Z,50.20
2018-04-12T16:44:43.814Z,49.80
2018-04-12T16:47:11.322Z,50.30
2018-04-12T16:49:38.798Z,50.40
2018-04-12T16:52:06.276Z,50.20
2018-04-12T16:54:34.166Z,51.20
2018-04-12T16:57:01.630Z,51.20
2018-04-12T16:59:29.173Z,51.80
2018-04-12T17:01:57.107Z,51.80
2018-04-12T17:04:24.610Z,51.80
2018-04-12T17:06:52.471Z,52.70
2018-04-12T17:09:20.430Z,53.40
2018-04-12T17:11:47.968Z,53.40
2018-04-12T17:14:15.427Z,53.40
2018-04-12T17:16:42.948Z,53.80
2018-04-12T17:19:10.578Z,54.20
2018-04-12T17:21:37.992Z,54.20
2018-04-12T17:24:05.469Z,54.00
2018-04-12T17:26:32.952Z,54.30
2018-04-12T17:29:00.429Z,54.60
2018-04-12T17:31:27.895Z,54.50
2018-04-12T17:33:55.534Z,54.80
2018-04-12T17:36:23.117Z,54.40
2018-04-12T17:38:50.631Z,54.50
2018-04-12T17:41:18.305Z,54.60
2018-04-12T17:43:45.806Z,54.80
2018-04-12T17:46:13.540Z,55.20
2018-04-12T17:48:41.214Z,55.00
2018-04-12T17:51:08.732Z,54.90
2018-04-12T17:53:36.288Z,54.80
2018-04-12T17:56:04.610Z,55.00
2018-04-12T17:58:32.120Z,55.20
2018-04-12T18:00:59.836Z,55.90
2018-04-12T18:03:27.361Z,55.40
2018-04-12T18:05:55.399Z,56.80
2018-04-12T18:08:22.951Z,56.80
2018-04-12T18:10:51.063Z,56.70
2018-04-12T18:13:19.996Z,56.50
2018-04-12T18:15:47.520Z,57.10
2018-04-12T18:18:15.107Z,57.30
2018-04-12T18:20:43.086Z,57.20
2018-04-12T18:23:10.694Z,57.30
2018-04-12T18:25:38.197Z,58.30
2018-04-12T18:28:05.814Z,58.30
2018-04-12T18:30:33.317Z,58.40
2018-04-12T18:33:00.815Z,58.80
2018-04-12T18:35:28.861Z,59.20
2018-04-12T18:37:56.441Z,59.20
2018-04-12T18:40:23.956Z,59.90
2018-04-12T18:42:51.491Z,60.00
2018-04-12T18:45:19.492Z,60.10
2018-04-12T18:47:47.011Z,60.10
2018-04-12T18:50:14.983Z,60.60
2018-04-12T18:52:42.514Z,60.60
2018-04-12T18:55:10.025Z,60.50
2018-04-12T18:57:37.926Z,61.40
2018-04-12T19:00:05.416Z,61.40
2018-04-12T19:02:33.001Z,61.60
2018-04-12T19:05:01.353Z,61.40
2018-04-12T19:07:28.919Z,61.40
2018-04-12T19:09:56.464Z,61.60
2018-04-12T19:12:23.975Z,61.50
2018-04-12T19:14:51.592Z,61.40
2018-04-12T19:17:19.201Z,61.70
2018-04-12T19:19:46.814Z,61.90
2018-04-12T19:22:14.324Z,62.00
2018-04-12T19:24:41.943Z,62.20
2018-04-12T19:27:09.633Z,62.00
2018-04-12T19:29:37.174Z,62.00
2018-04-12T19:32:04.683Z,62.20
2018-04-12T19:34:32.198Z,61.90
2018-04-12T19:36:59.705Z,62.20
2018-04-12T19:39:27.271Z,62.40
2018-04-12T19:41:54.784Z,62.50
2018-04-12T19:44:22.313Z,62.50
2018-04-12T19:46:49.801Z,62.60
2018-04-12T19:49:17.299Z,62.90
2018-04-12T19:51:44.900Z,63.00
2018-04-12T19:54:12.518Z,63.10
2018-04-12T19:56:40.083Z,63.20
2018-04-12T19:59:07.926Z,62.80
2018-04-12T20:01:35.837Z,63.20
2018-04-12T20:04:03.426Z,63.30
2018-04-12T20:06:31.048Z,63.40
2018-04-12T20:08:58.641Z,63.00
2018-04-12T20:11:26.150Z,63.30
2018-04-12T20:13:54.149Z,63.40
2018-04-12T20:16:22.603Z,63.50
2018-04-12T20:18:50.819Z,63.40
2018-04-12T20:21:18.317Z,63.40
2018-04-12T20:23:46.771Z,63.70
2018-04-12T20:26:14.288Z,63.90
2018-04-12T20:28:42.489Z,64.30
2018-04-12T20:31:10.080Z,64.30
2018-04-12T20:33:37.687Z,64.60
2018-04-12T20:36:05.228Z,64.90
2018-04-12T20:38:32.734Z,64.70
2018-04-12T20:41:00.725Z,64.90
2018-04-12T20:43:28.384Z,64.90
2018-04-12T20:45:55.954Z,64.80
2018-04-12T20:48:23.451Z,64.70
2018-04-12T20:50:50.987Z,64.90
2018-04-12T20:53:18.582Z,65.10
2018-04-12T20:55:46.096Z,65.00
2018-04-12T20:58:13.988Z,65.40
2018-04-12T21:00:41.502Z,65.40
2018-04-12T21:03:08.993Z,65.50
2018-04-12T21:05:36.957Z,65.70
2018-04-12T21:08:04.839Z,65.70
2018-04-12T21:10:32.359Z,65.70
2018-04-12T21:12:59.862Z,65.60
2018-04-12T21:15:27.760Z,66.40
2018-04-12T21:17:55.325Z,66.40
2018-04-12T21:20:22.863Z,66.40
2018-04-12T21:22:50.840Z,66.70
2018-04-12T21:25:18.713Z,66.90
2018-04-12T21:27:47.022Z,67.30
2018-04-12T21:30:14.588Z,67.30
2018-04-12T21:32:42.129Z,67.00
2018-04-12T21:35:10.132Z,67.30
2018-04-12T21:37:37.660Z,67.30
2018-04-12T21:40:05.638Z,67.40
2018-04-12T21:42:33.691Z,67.40
2018-04-12T21:45:01.275Z,67.50
2018-04-12T21:47:29.267Z,67.60
2018-04-12T21:49:56.777Z,67.60
2018-04-12T21:52:24.498Z,67.70
2018-04-12T21:54:52.117Z,67.60
2018-04-12T21:57:19.630Z,67.70
2018-04-12T21:59:47.196Z,67.80
2018-04-12T22:02:15.755Z,67.90
2018-04-12T22:04:43.651Z,68.30
2018-04-12T22:07:11.223Z,68.30
2018-04-12T22:09:38.719Z,68.00
2018-04-12T22:12:06.190Z,68.00
2018-04-12T22:14:33.712Z,68.00
2018-04-12T22:17:01.256Z,68.30
2018-04-12T22:19:29.239Z,68.20
2018-04-12T22:21:56.755Z,68.20
2018-04-12T22:24:24.221Z,67.90
2018-04-12T22:26:52.157Z,67.70
2018-04-12T22:29:19.668Z,67.70
2018-04-12T22:31:47.172Z,67.90
2018-04-12T22:34:16.139Z,68.00
2018-04-12T22:36:43.641Z,68.20
2018-04-12T22:39:11.127Z,68.30
2018-04-12T22:41:38.735Z,68.30
2018-04-12T22:44:06.418Z,68.30
2018-04-12T22:46:33.894Z,68.40
2018-04-12T22:49:01.457Z,68.50
2018-04-12T22:51:28.989Z,68.60
2018-04-12T22:53:56.884Z,68.70
2018-04-12T22:56:24.429Z,68.70
2018-04-12T22:58:51.946Z,68.90
2018-04-12T23:01:19.571Z,69.00
2018-04-12T23:03:47.086Z,69.10
2018-04-12T23:06:14.566Z,68.90
2018-04-12T23:08:42.148Z,69.10
2018-04-12T23:11:09.712Z,69.10
2018-04-12T23:13:37.188Z,69.10
2018-04-12T23:16:05.159Z,69.30
2018-04-12T23:18:32.733Z,69.40
2018-04-12T23:21:00.398Z,69.70
2018-04-12T23:23:27.948Z,69.50
2018-04-12T23:25:55.853Z,69.90
2018-04-12T23:28:23.346Z,69.90
2018-04-12T23:30:50.826Z,69.90
2018-04-12T23:33:18.349Z,69.90
2018-04-12T23:35:45.885Z,69.90
2018-04-12T23:38:13.418Z,69.90
2018-04-12T23:40:41.306Z,70.00
2018-04-12T23:43:08.843Z,70.00
2018-04-12T23:45:36.401Z,69.90
2018-04-12T23:48:05.374Z,70.00
2018-04-12T23:50:32.893Z,69.70
2018-04-12T23:53:00.801Z,70.10
2018-04-12T23:55:28.276Z,70.10
2018-04-12T23:57:55.871Z,69.90
